Pueblo, CO (81001)

6:25 PM MST on January 23, 2017 (GMT -0700)
Belmont - Boomer Weather | | Change Station

Elev 4869 ft 38.30 °N, 104.58 °W | Updated 2 seconds ago

Clear
Clear
48.9 °F
Feels Like 45 °F
N
10.0
Wind Variable Wind from SSE
Gusts 22.0 mph

Today
High -- | Low -- °F
--% Chance of Precip.
Yesterday
High -- | Low -- °F
Precip. -- in
Pressure 29.54 in
Visibility 10.0 miles
Clouds Clear
Windchill 45 °F
Dew Point 26 °F
Humidity 41%
Rainfall 0.00 in
Snow Depth Not available.
7:09 AM 5:11 PM
Waning Crescent, 15% visible
METAR KPUB 240053Z 21008KT 10SM CLR 08/M03 A2953 RMK AO2 SLP002 T00781033
Pressure 29.54 in
Visibility 10.0 miles
Clouds Clear
Windchill 45 °F
Dew Point 26 °F
Humidity 41%
Rainfall 0.00 in
Snow Depth Not available.
7:09 AM 5:11 PM
Waning Crescent, 15% visible
METAR KPUB 240053Z 21008KT 10SM CLR 08/M03 A2953 RMK AO2 SLP002 T00781033

Get Your Daily Forecast Email!

Thanks for signing up!

Be on the lookout for a verification email in your inbox.

You'll start receiving the daily forecast at 8 AM.

×

10-Day Weather Forecast

Almanac

Astronomy

Jan. 23, 2017 Rise Set
Actual Time
Civil Twilight
Nautical Twilight
Astronomical Twilight
Moon
Length of Visible Light
Length of Day
Tomorrow will be .
, % of the Moon is Illuminated

Today's Extremes

State Highs State Lows

Community

WunderPhotos

Upload Photos

1,962,540 photos uploaded!

WunderBlog® & News

Nearby

Air Quality

  Air Quality AQ Index Pollutant
Not available.

Snow Depth

Station Depth Elevation

Earthquake Activity

City Distance Mag. Time & Date
Minimum magnitude displayed is 2.5.

Coastal Water Temperatures

Place Temperature

Stations

Nearby Weather Stations

Station Location Temp. Windchill Dew Point Humidity Wind Precip. Elev Updated Type
                   

Watches & Warnings

There are currently no watches in effect.